sensor_id;sensor_type;location;lat;lon;timestamp;P1;durP1;ratioP1;P2;durP2;ratioP2
1715;SDS011;855;48.824;9.220;2023-05-07T00:00:41;6.47;;;2.90;;
1715;SDS011;855;48.824;9.220;2023-05-07T00:03:08;6.20;;;3.90;;
1715;SDS011;855;48.824;9.220;2023-05-07T00:05:37;8.93;;;3.60;;
1715;SDS011;855;48.824;9.220;2023-05-07T00:08:04;4.70;;;3.60;;
1715;SDS011;855;48.824;9.220;2023-05-07T00:10:31;6.63;;;2.83;;
1715;SDS011;855;48.824;9.220;2023-05-07T00:12:59;4.73;;;3.23;;
1715;SDS011;855;48.824;9.220;2023-05-07T00:15:26;7.60;;;3.23;;
1715;SDS011;855;48.824;9.220;2023-05-07T00:17:53;4.53;;;2.67;;
1715;SDS011;855;48.824;9.220;2023-05-07T00:20:20;5.40;;;3.37;;
1715;SDS011;855;48.824;9.220;2023-05-07T00:22:48;12.07;;;3.40;;
1715;SDS011;855;48.824;9.220;2023-05-07T00:25:15;4.80;;;3.00;;
1715;SDS011;855;48.824;9.220;2023-05-07T00:27:44;4.63;;;2.27;;
1715;SDS011;855;48.824;9.220;2023-05-07T00:30:11;5.80;;;3.33;;
1715;SDS011;855;48.824;9.220;2023-05-07T00:32:39;5.97;;;3.50;;
1715;SDS011;855;48.824;9.220;2023-05-07T00:35:07;6.77;;;3.13;;
1715;SDS011;855;48.824;9.220;2023-05-07T00:37:34;10.83;;;4.13;;
1715;SDS011;855;48.824;9.220;2023-05-07T00:40:02;4.97;;;3.07;;
1715;SDS011;855;48.824;9.220;2023-05-07T00:42:32;5.50;;;2.80;;
1715;SDS011;855;48.824;9.220;2023-05-07T00:44:59;7.63;;;3.00;;
1715;SDS011;855;48.824;9.220;2023-05-07T00:47:26;7.80;;;3.53;;
1715;SDS011;855;48.824;9.220;2023-05-07T00:49:53;6.20;;;2.73;;
1715;SDS011;855;48.824;9.220;2023-05-07T00:52:20;7.73;;;3.63;;
1715;SDS011;855;48.824;9.220;2023-05-07T00:54:50;16.23;;;3.97;;
1715;SDS011;855;48.824;9.220;2023-05-07T00:57:19;4.37;;;2.37;;
1715;SDS011;855;48.824;9.220;2023-05-07T00:59:47;6.60;;;3.17;;
1715;SDS011;855;48.824;9.220;2023-05-07T01:02:17;9.23;;;3.90;;
1715;SDS011;855;48.824;9.220;2023-05-07T01:04:58;4.87;;;3.27;;
1715;SDS011;855;48.824;9.220;2023-05-07T01:07:26;6.53;;;3.13;;
1715;SDS011;855;48.824;9.220;2023-05-07T01:09:54;10.90;;;3.73;;
1715;SDS011;855;48.824;9.220;2023-05-07T01:12:23;4.87;;;3.13;;
1715;SDS011;855;48.824;9.220;2023-05-07T01:14:51;8.23;;;3.30;;
1715;SDS011;855;48.824;9.220;2023-05-07T01:17:18;5.00;;;2.80;;
1715;SDS011;855;48.824;9.220;2023-05-07T01:19:45;6.23;;;3.20;;
1715;SDS011;855;48.824;9.220;2023-05-07T01:22:12;8.30;;;3.37;;
1715;SDS011;855;48.824;9.220;2023-05-07T01:24:44;13.40;;;3.50;;
1715;SDS011;855;48.824;9.220;2023-05-07T01:27:11;5.17;;;3.20;;
1715;SDS011;855;48.824;9.220;2023-05-07T01:29:38;10.43;;;3.27;;
1715;SDS011;855;48.824;9.220;2023-05-07T01:32:05;6.30;;;3.50;;
1715;SDS011;855;48.824;9.220;2023-05-07T01:34:33;7.80;;;3.47;;
1715;SDS011;855;48.824;9.220;2023-05-07T01:37:02;11.47;;;3.40;;
1715;SDS011;855;48.824;9.220;2023-05-07T01:39:29;5.60;;;3.30;;
1715;SDS011;855;48.824;9.220;2023-05-07T01:41:58;4.20;;;2.80;;
1715;SDS011;855;48.824;9.220;2023-05-07T01:44:25;12.63;;;3.57;;
1715;SDS011;855;48.824;9.220;2023-05-07T01:46:53;9.97;;;4.00;;
1715;SDS011;855;48.824;9.220;2023-05-07T01:49:20;8.80;;;3.50;;
1715;SDS011;855;48.824;9.220;2023-05-07T01:51:47;6.53;;;3.60;;
1715;SDS011;855;48.824;9.220;2023-05-07T01:54:15;5.67;;;3.70;;
1715;SDS011;855;48.824;9.220;2023-05-07T01:56:42;4.10;;;2.70;;
1715;SDS011;855;48.824;9.220;2023-05-07T01:59:10;6.80;;;3.30;;
1715;SDS011;855;48.824;9.220;2023-05-07T02:01:38;8.40;;;4.17;;
1715;SDS011;855;48.824;9.220;2023-05-07T02:04:05;8.23;;;2.87;;
1715;SDS011;855;48.824;9.220;2023-05-07T02:06:32;9.43;;;3.50;;
1715;SDS011;855;48.824;9.220;2023-05-07T02:08:59;7.63;;;3.30;;
1715;SDS011;855;48.824;9.220;2023-05-07T02:11:26;7.60;;;4.00;;
1715;SDS011;855;48.824;9.220;2023-05-07T02:13:53;7.33;;;3.10;;
1715;SDS011;855;48.824;9.220;2023-05-07T02:16:21;3.83;;;2.63;;
1715;SDS011;855;48.824;9.220;2023-05-07T02:18:49;4.60;;;2.67;;
1715;SDS011;855;48.824;9.220;2023-05-07T02:21:15;5.67;;;3.40;;
1715;SDS011;855;48.824;9.220;2023-05-07T02:23:42;3.47;;;2.30;;
1715;SDS011;855;48.824;9.220;2023-05-07T02:26:10;3.90;;;2.70;;
1715;SDS011;855;48.824;9.220;2023-05-07T02:28:37;12.00;;;3.70;;
1715;SDS011;855;48.824;9.220;2023-05-07T02:31:04;7.13;;;3.30;;
1715;SDS011;855;48.824;9.220;2023-05-07T02:33:32;5.03;;;3.47;;
1715;SDS011;855;48.824;9.220;2023-05-07T02:36:04;10.13;;;4.00;;
1715;SDS011;855;48.824;9.220;2023-05-07T02:38:32;4.03;;;2.87;;
1715;SDS011;855;48.824;9.220;2023-05-07T02:40:59;8.10;;;3.33;;
1715;SDS011;855;48.824;9.220;2023-05-07T02:43:26;3.80;;;2.73;;
1715;SDS011;855;48.824;9.220;2023-05-07T02:46:00;5.07;;;2.87;;
1715;SDS011;855;48.824;9.220;2023-05-07T02:48:27;5.60;;;3.20;;
1715;SDS011;855;48.824;9.220;2023-05-07T02:50:56;7.50;;;2.67;;
1715;SDS011;855;48.824;9.220;2023-05-07T02:53:23;5.80;;;2.90;;
1715;SDS011;855;48.824;9.220;2023-05-07T02:55:51;8.50;;;3.70;;
1715;SDS011;855;48.824;9.220;2023-05-07T02:58:18;5.30;;;3.23;;
1715;SDS011;855;48.824;9.220;2023-05-07T03:00:45;4.93;;;2.80;;
1715;SDS011;855;48.824;9.220;2023-05-07T03:03:12;6.60;;;3.93;;
1715;SDS011;855;48.824;9.220;2023-05-07T03:05:39;7.60;;;3.13;;
1715;SDS011;855;48.824;9.220;2023-05-07T03:08:07;8.10;;;3.77;;
1715;SDS011;855;48.824;9.220;2023-05-07T03:10:36;7.50;;;3.27;;
1715;SDS011;855;48.824;9.220;2023-05-07T03:13:03;4.20;;;3.17;;
1715;SDS011;855;48.824;9.220;2023-05-07T03:15:30;5.67;;;3.27;;
1715;SDS011;855;48.824;9.220;2023-05-07T03:17:57;3.07;;;2.40;;
1715;SDS011;855;48.824;9.220;2023-05-07T03:20:24;5.90;;;3.27;;
1715;SDS011;855;48.824;9.220;2023-05-07T03:22:51;6.30;;;3.10;;
1715;SDS011;855;48.824;9.220;2023-05-07T03:25:19;7.00;;;3.70;;
1715;SDS011;855;48.824;9.220;2023-05-07T03:27:46;5.30;;;2.70;;
1715;SDS011;855;48.824;9.220;2023-05-07T03:30:13;6.00;;;3.60;;
1715;SDS011;855;48.824;9.220;2023-05-07T03:32:40;4.87;;;3.13;;
1715;SDS011;855;48.824;9.220;2023-05-07T03:35:07;5.73;;;3.10;;
1715;SDS011;855;48.824;9.220;2023-05-07T03:37:35;6.83;;;3.50;;
1715;SDS011;855;48.824;9.220;2023-05-07T03:40:01;7.50;;;3.20;;
1715;SDS011;855;48.824;9.220;2023-05-07T03:42:31;5.87;;;3.90;;
1715;SDS011;855;48.824;9.220;2023-05-07T03:44:57;6.07;;;3.00;;
1715;SDS011;855;48.824;9.220;2023-05-07T03:47:24;5.33;;;3.03;;
1715;SDS011;855;48.824;9.220;2023-05-07T03:49:51;6.93;;;2.53;;
1715;SDS011;855;48.824;9.220;2023-05-07T03:52:19;5.00;;;2.80;;
1715;SDS011;855;48.824;9.220;2023-05-07T03:54:50;3.03;;;2.53;;
1715;SDS011;855;48.824;9.220;2023-05-07T03:57:18;6.70;;;3.57;;
1715;SDS011;855;48.824;9.220;2023-05-07T03:59:46;3.83;;;2.43;;
1715;SDS011;855;48.824;9.220;2023-05-07T04:02:13;8.27;;;4.17;;
1715;SDS011;855;48.824;9.220;2023-05-07T04:04:40;7.47;;;2.50;;
1715;SDS011;855;48.824;9.220;2023-05-07T04:07:07;5.70;;;3.40;;
1715;SDS011;855;48.824;9.220;2023-05-07T04:09:35;3.60;;;2.47;;
1715;SDS011;855;48.824;9.220;2023-05-07T04:12:02;4.60;;;2.80;;
1715;SDS011;855;48.824;9.220;2023-05-07T04:14:29;4.70;;;2.83;;
1715;SDS011;855;48.824;9.220;2023-05-07T04:16:58;8.70;;;3.50;;
1715;SDS011;855;48.824;9.220;2023-05-07T04:19:25;4.70;;;3.17;;
1715;SDS011;855;48.824;9.220;2023-05-07T04:21:52;5.90;;;3.63;;
1715;SDS011;855;48.824;9.220;2023-05-07T04:24:20;8.67;;;4.27;;
1715;SDS011;855;48.824;9.220;2023-05-07T04:26:47;4.50;;;2.83;;
1715;SDS011;855;48.824;9.220;2023-05-07T04:29:14;6.70;;;3.27;;
1715;SDS011;855;48.824;9.220;2023-05-07T04:31:41;8.90;;;3.77;;
1715;SDS011;855;48.824;9.220;2023-05-07T04:34:10;6.53;;;3.60;;
1715;SDS011;855;48.824;9.220;2023-05-07T04:36:38;5.20;;;2.80;;
1715;SDS011;855;48.824;9.220;2023-05-07T04:39:04;6.30;;;3.20;;
1715;SDS011;855;48.824;9.220;2023-05-07T04:41:32;12.13;;;3.47;;
1715;SDS011;855;48.824;9.220;2023-05-07T04:43:59;7.90;;;3.00;;
1715;SDS011;855;48.824;9.220;2023-05-07T04:46:26;9.33;;;3.40;;
1715;SDS011;855;48.824;9.220;2023-05-07T04:48:53;4.40;;;3.10;;
1715;SDS011;855;48.824;9.220;2023-05-07T04:51:21;4.40;;;3.20;;
1715;SDS011;855;48.824;9.220;2023-05-07T04:53:48;7.13;;;4.03;;
1715;SDS011;855;48.824;9.220;2023-05-07T04:56:15;5.70;;;3.20;;
1715;SDS011;855;48.824;9.220;2023-05-07T04:58:42;10.70;;;3.30;;
1715;SDS011;855;48.824;9.220;2023-05-07T05:01:11;5.77;;;3.60;;
1715;SDS011;855;48.824;9.220;2023-05-07T05:03:38;9.10;;;3.93;;
1715;SDS011;855;48.824;9.220;2023-05-07T05:06:05;6.63;;;3.90;;
1715;SDS011;855;48.824;9.220;2023-05-07T05:08:35;4.17;;;3.40;;
1715;SDS011;855;48.824;9.220;2023-05-07T05:11:02;3.93;;;2.83;;
1715;SDS011;855;48.824;9.220;2023-05-07T05:13:29;6.33;;;3.27;;
1715;SDS011;855;48.824;9.220;2023-05-07T05:15:56;6.80;;;3.80;;
1715;SDS011;855;48.824;9.220;2023-05-07T05:18:23;5.27;;;3.37;;
1715;SDS011;855;48.824;9.220;2023-05-07T05:20:51;10.43;;;4.07;;
1715;SDS011;855;48.824;9.220;2023-05-07T05:23:18;4.80;;;3.03;;
1715;SDS011;855;48.824;9.220;2023-05-07T05:25:46;4.97;;;3.53;;
1715;SDS011;855;48.824;9.220;2023-05-07T05:28:13;6.93;;;3.50;;
1715;SDS011;855;48.824;9.220;2023-05-07T05:30:40;5.73;;;3.40;;
1715;SDS011;855;48.824;9.220;2023-05-07T05:33:06;4.60;;;3.07;;
1715;SDS011;855;48.824;9.220;2023-05-07T05:35:33;8.77;;;3.57;;
1715;SDS011;855;48.824;9.220;2023-05-07T05:38:00;7.70;;;3.83;;
1715;SDS011;855;48.824;9.220;2023-05-07T05:40:27;20.63;;;3.27;;
1715;SDS011;855;48.824;9.220;2023-05-07T05:42:56;9.80;;;4.17;;
1715;SDS011;855;48.824;9.220;2023-05-07T05:45:22;5.90;;;3.13;;
1715;SDS011;855;48.824;9.220;2023-05-07T05:47:52;3.30;;;2.50;;
1715;SDS011;855;48.824;9.220;2023-05-07T05:50:19;4.80;;;2.97;;
1715;SDS011;855;48.824;9.220;2023-05-07T05:52:46;5.33;;;2.70;;
1715;SDS011;855;48.824;9.220;2023-05-07T05:55:13;6.30;;;3.57;;
1715;SDS011;855;48.824;9.220;2023-05-07T05:57:40;3.07;;;2.27;;
1715;SDS011;855;48.824;9.220;2023-05-07T06:00:09;4.97;;;3.20;;
1715;SDS011;855;48.824;9.220;2023-05-07T06:02:36;6.20;;;2.80;;
1715;SDS011;855;48.824;9.220;2023-05-07T06:05:04;4.40;;;2.50;;
1715;SDS011;855;48.824;9.220;2023-05-07T06:07:31;6.50;;;2.80;;
1715;SDS011;855;48.824;9.220;2023-05-07T06:09:58;7.20;;;3.43;;
1715;SDS011;855;48.824;9.220;2023-05-07T06:12:25;3.37;;;2.63;;
1715;SDS011;855;48.824;9.220;2023-05-07T06:14:52;9.27;;;2.83;;
1715;SDS011;855;48.824;9.220;2023-05-07T06:17:20;8.30;;;3.00;;
1715;SDS011;855;48.824;9.220;2023-05-07T06:19:47;5.93;;;3.57;;
1715;SDS011;855;48.824;9.220;2023-05-07T06:22:14;7.47;;;3.53;;
1715;SDS011;855;48.824;9.220;2023-05-07T06:24:40;3.57;;;2.23;;
1715;SDS011;855;48.824;9.220;2023-05-07T06:27:07;3.47;;;2.73;;
1715;SDS011;855;48.824;9.220;2023-05-07T06:29:34;4.87;;;3.30;;
1715;SDS011;855;48.824;9.220;2023-05-07T06:32:11;5.93;;;2.73;;
1715;SDS011;855;48.824;9.220;2023-05-07T06:34:41;9.60;;;3.00;;
1715;SDS011;855;48.824;9.220;2023-05-07T06:37:07;4.07;;;2.80;;
1715;SDS011;855;48.824;9.220;2023-05-07T06:39:34;8.33;;;3.60;;
1715;SDS011;855;48.824;9.220;2023-05-07T06:42:01;3.13;;;1.90;;
1715;SDS011;855;48.824;9.220;2023-05-07T06:44:29;7.53;;;3.57;;
1715;SDS011;855;48.824;9.220;2023-05-07T06:46:56;4.77;;;2.60;;
1715;SDS011;855;48.824;9.220;2023-05-07T06:49:24;6.57;;;3.00;;
1715;SDS011;855;48.824;9.220;2023-05-07T06:51:52;7.40;;;2.83;;
1715;SDS011;855;48.824;9.220;2023-05-07T06:54:19;4.80;;;2.77;;
1715;SDS011;855;48.824;9.220;2023-05-07T06:56:47;6.30;;;2.67;;
1715;SDS011;855;48.824;9.220;2023-05-07T06:59:13;6.43;;;2.63;;
1715;SDS011;855;48.824;9.220;2023-05-07T07:01:40;3.00;;;2.37;;
1715;SDS011;855;48.824;9.220;2023-05-07T07:04:07;3.80;;;2.70;;
1715;SDS011;855;48.824;9.220;2023-05-07T07:06:34;3.73;;;2.80;;
1715;SDS011;855;48.824;9.220;2023-05-07T07:09:02;6.80;;;3.77;;
1715;SDS011;855;48.824;9.220;2023-05-07T07:11:29;5.57;;;3.47;;
1715;SDS011;855;48.824;9.220;2023-05-07T07:13:56;18.60;;;3.40;;
1715;SDS011;855;48.824;9.220;2023-05-07T07:16:24;4.70;;;1.90;;
1715;SDS011;855;48.824;9.220;2023-05-07T07:18:50;4.97;;;3.23;;
1715;SDS011;855;48.824;9.220;2023-05-07T07:21:17;2.80;;;2.40;;
1715;SDS011;855;48.824;9.220;2023-05-07T07:23:44;2.87;;;2.30;;
1715;SDS011;855;48.824;9.220;2023-05-07T07:26:17;6.53;;;3.13;;
1715;SDS011;855;48.824;9.220;2023-05-07T07:28:44;8.83;;;2.80;;
1715;SDS011;855;48.824;9.220;2023-05-07T07:31:11;7.63;;;3.40;;
1715;SDS011;855;48.824;9.220;2023-05-07T07:33:39;6.33;;;3.27;;
1715;SDS011;855;48.824;9.220;2023-05-07T07:36:05;3.23;;;2.57;;
1715;SDS011;855;48.824;9.220;2023-05-07T07:38:33;5.97;;;3.00;;
1715;SDS011;855;48.824;9.220;2023-05-07T07:41:00;5.73;;;2.70;;
1715;SDS011;855;48.824;9.220;2023-05-07T07:43:28;4.77;;;2.73;;
1715;SDS011;855;48.824;9.220;2023-05-07T07:45:55;5.10;;;3.20;;
1715;SDS011;855;48.824;9.220;2023-05-07T07:48:22;3.17;;;2.40;;
1715;SDS011;855;48.824;9.220;2023-05-07T07:50:49;5.63;;;3.40;;
1715;SDS011;855;48.824;9.220;2023-05-07T07:53:16;4.07;;;2.63;;
1715;SDS011;855;48.824;9.220;2023-05-07T07:55:43;3.23;;;2.37;;
1715;SDS011;855;48.824;9.220;2023-05-07T07:58:10;3.87;;;2.67;;
1715;SDS011;855;48.824;9.220;2023-05-07T08:00:38;3.00;;;1.90;;
1715;SDS011;855;48.824;9.220;2023-05-07T08:03:05;8.20;;;2.60;;
1715;SDS011;855;48.824;9.220;2023-05-07T08:05:34;3.50;;;2.27;;
1715;SDS011;855;48.824;9.220;2023-05-07T08:08:01;11.47;;;2.70;;
1715;SDS011;855;48.824;9.220;2023-05-07T08:10:28;2.73;;;1.80;;
1715;SDS011;855;48.824;9.220;2023-05-07T08:12:58;4.03;;;2.33;;
1715;SDS011;855;48.824;9.220;2023-05-07T08:15:25;4.13;;;2.30;;
1715;SDS011;855;48.824;9.220;2023-05-07T08:17:54;4.97;;;2.43;;
1715;SDS011;855;48.824;9.220;2023-05-07T08:20:22;3.93;;;2.83;;
1715;SDS011;855;48.824;9.220;2023-05-07T08:22:49;4.00;;;2.60;;
1715;SDS011;855;48.824;9.220;2023-05-07T08:25:16;5.53;;;2.90;;
1715;SDS011;855;48.824;9.220;2023-05-07T08:27:42;3.90;;;2.00;;
1715;SDS011;855;48.824;9.220;2023-05-07T08:30:10;5.20;;;2.63;;
1715;SDS011;855;48.824;9.220;2023-05-07T08:32:38;7.63;;;2.57;;
1715;SDS011;855;48.824;9.220;2023-05-07T08:35:06;3.87;;;2.20;;
1715;SDS011;855;48.824;9.220;2023-05-07T08:37:34;7.77;;;4.23;;
1715;SDS011;855;48.824;9.220;2023-05-07T08:40:01;3.40;;;2.50;;
1715;SDS011;855;48.824;9.220;2023-05-07T08:42:28;5.40;;;2.80;;
1715;SDS011;855;48.824;9.220;2023-05-07T08:44:55;3.23;;;2.53;;
1715;SDS011;855;48.824;9.220;2023-05-07T08:47:29;5.17;;;2.70;;
1715;SDS011;855;48.824;9.220;2023-05-07T08:50:06;4.40;;;2.40;;
1715;SDS011;855;48.824;9.220;2023-05-07T08:52:34;4.00;;;2.33;;
1715;SDS011;855;48.824;9.220;2023-05-07T08:55:02;3.10;;;2.40;;
1715;SDS011;855;48.824;9.220;2023-05-07T08:57:30;7.57;;;2.50;;
1715;SDS011;855;48.824;9.220;2023-05-07T08:59:56;3.27;;;2.43;;
1715;SDS011;855;48.824;9.220;2023-05-07T09:02:23;3.20;;;2.23;;
1715;SDS011;855;48.824;9.220;2023-05-07T09:04:50;9.73;;;2.30;;
1715;SDS011;855;48.824;9.220;2023-05-07T09:07:19;3.20;;;2.37;;
1715;SDS011;855;48.824;9.220;2023-05-07T09:09:46;5.20;;;2.40;;
1715;SDS011;855;48.824;9.220;2023-05-07T09:12:13;2.93;;;2.00;;
1715;SDS011;855;48.824;9.220;2023-05-07T09:14:40;3.60;;;2.63;;
1715;SDS011;855;48.824;9.220;2023-05-07T09:17:06;5.40;;;2.90;;
1715;SDS011;855;48.824;9.220;2023-05-07T09:19:33;6.73;;;2.30;;
1715;SDS011;855;48.824;9.220;2023-05-07T09:22:00;2.73;;;2.00;;
1715;SDS011;855;48.824;9.220;2023-05-07T09:24:29;4.97;;;1.83;;
1715;SDS011;855;48.824;9.220;2023-05-07T09:27:00;3.27;;;1.50;;
1715;SDS011;855;48.824;9.220;2023-05-07T09:29:27;2.60;;;1.43;;
1715;SDS011;855;48.824;9.220;2023-05-07T09:31:55;4.10;;;2.00;;
1715;SDS011;855;48.824;9.220;2023-05-07T09:34:22;2.37;;;1.80;;
1715;SDS011;855;48.824;9.220;2023-05-07T09:36:49;3.47;;;1.73;;
1715;SDS011;855;48.824;9.220;2023-05-07T09:39:16;7.83;;;2.07;;
1715;SDS011;855;48.824;9.220;2023-05-07T09:41:44;2.83;;;1.77;;
1715;SDS011;855;48.824;9.220;2023-05-07T09:44:12;8.57;;;1.77;;
1715;SDS011;855;48.824;9.220;2023-05-07T09:46:41;2.77;;;1.40;;
1715;SDS011;855;48.824;9.220;2023-05-07T09:49:11;3.90;;;1.53;;
1715;SDS011;855;48.824;9.220;2023-05-07T09:51:43;1.23;;;1.20;;
1715;SDS011;855;48.824;9.220;2023-05-07T09:54:14;3.33;;;2.17;;
1715;SDS011;855;48.824;9.220;2023-05-07T09:56:41;3.13;;;1.70;;
1715;SDS011;855;48.824;9.220;2023-05-07T09:59:12;2.23;;;1.47;;
1715;SDS011;855;48.824;9.220;2023-05-07T10:01:40;2.37;;;1.40;;
1715;SDS011;855;48.824;9.220;2023-05-07T10:04:09;2.97;;;2.27;;
1715;SDS011;855;48.824;9.220;2023-05-07T10:06:37;1.77;;;1.43;;
1715;SDS011;855;48.824;9.220;2023-05-07T10:09:04;1.50;;;1.40;;
1715;SDS011;855;48.824;9.220;2023-05-07T10:11:31;1.23;;;1.17;;
1715;SDS011;855;48.824;9.220;2023-05-07T10:14:01;1.80;;;1.70;;
1715;SDS011;855;48.824;9.220;2023-05-07T10:16:30;4.70;;;1.20;;
1715;SDS011;855;48.824;9.220;2023-05-07T10:19:01;1.80;;;1.40;;
1715;SDS011;855;48.824;9.220;2023-05-07T10:21:28;2.43;;;1.60;;
1715;SDS011;855;48.824;9.220;2023-05-07T10:23:57;2.87;;;1.87;;
1715;SDS011;855;48.824;9.220;2023-05-07T10:26:25;3.37;;;1.53;;
1715;SDS011;855;48.824;9.220;2023-05-07T10:28:56;3.20;;;1.70;;
1715;SDS011;855;48.824;9.220;2023-05-07T10:31:35;4.03;;;1.67;;
1715;SDS011;855;48.824;9.220;2023-05-07T10:34:15;4.00;;;2.20;;
1715;SDS011;855;48.824;9.220;2023-05-07T10:36:55;3.20;;;2.10;;
1715;SDS011;855;48.824;9.220;2023-05-07T10:39:22;1.53;;;1.40;;
1715;SDS011;855;48.824;9.220;2023-05-07T10:41:50;4.23;;;1.80;;
1715;SDS011;855;48.824;9.220;2023-05-07T10:44:26;2.90;;;1.67;;
1715;SDS011;855;48.824;9.220;2023-05-07T10:47:04;4.23;;;1.53;;
1715;SDS011;855;48.824;9.220;2023-05-07T10:49:34;1.77;;;1.40;;
1715;SDS011;855;48.824;9.220;2023-05-07T10:52:10;1.27;;;1.17;;
1715;SDS011;855;48.824;9.220;2023-05-07T10:54:38;1.90;;;1.57;;
1715;SDS011;855;48.824;9.220;2023-05-07T11:00:01;2.73;;;2.20;;
1715;SDS011;855;48.824;9.220;2023-05-07T11:05:32;1.20;;;1.10;;
1715;SDS011;855;48.824;9.220;2023-05-07T11:08:00;7.90;;;1.50;;
1715;SDS011;855;48.824;9.220;2023-05-07T11:13:40;2.53;;;1.57;;
1715;SDS011;855;48.824;9.220;2023-05-07T11:16:16;2.67;;;1.70;;
1715;SDS011;855;48.824;9.220;2023-05-07T11:18:47;5.57;;;1.90;;
1715;SDS011;855;48.824;9.220;2023-05-07T11:21:29;2.37;;;2.00;;
1715;SDS011;855;48.824;9.220;2023-05-07T11:23:59;3.57;;;1.80;;
1715;SDS011;855;48.824;9.220;2023-05-07T11:26:27;2.13;;;1.50;;
1715;SDS011;855;48.824;9.220;2023-05-07T11:28:56;4.50;;;2.17;;
1715;SDS011;855;48.824;9.220;2023-05-07T11:31:26;2.20;;;1.50;;
1715;SDS011;855;48.824;9.220;2023-05-07T11:33:55;2.10;;;1.73;;
1715;SDS011;855;48.824;9.220;2023-05-07T11:36:23;2.40;;;1.37;;
1715;SDS011;855;48.824;9.220;2023-05-07T11:38:52;1.33;;;1.20;;
1715;SDS011;855;48.824;9.220;2023-05-07T11:41:19;4.47;;;2.10;;
1715;SDS011;855;48.824;9.220;2023-05-07T11:43:53;1.67;;;1.60;;
1715;SDS011;855;48.824;9.220;2023-05-07T11:46:21;1.80;;;1.57;;
1715;SDS011;855;48.824;9.220;2023-05-07T11:48:48;3.33;;;1.80;;
1715;SDS011;855;48.824;9.220;2023-05-07T11:51:18;3.10;;;1.60;;
1715;SDS011;855;48.824;9.220;2023-05-07T11:53:46;1.93;;;1.10;;
1715;SDS011;855;48.824;9.220;2023-05-07T11:56:15;3.13;;;2.40;;
1715;SDS011;855;48.824;9.220;2023-05-07T11:58:44;1.97;;;1.43;;
1715;SDS011;855;48.824;9.220;2023-05-07T12:01:12;1.57;;;1.50;;
1715;SDS011;855;48.824;9.220;2023-05-07T12:03:40;2.10;;;1.70;;
1715;SDS011;855;48.824;9.220;2023-05-07T12:06:09;2.73;;;1.90;;
1715;SDS011;855;48.824;9.220;2023-05-07T12:08:36;2.90;;;2.47;;
1715;SDS011;855;48.824;9.220;2023-05-07T12:11:05;6.10;;;1.40;;
1715;SDS011;855;48.824;9.220;2023-05-07T12:13:35;1.83;;;1.67;;
1715;SDS011;855;48.824;9.220;2023-05-07T12:16:02;1.73;;;1.50;;
1715;SDS011;855;48.824;9.220;2023-05-07T12:18:30;2.30;;;1.37;;
1715;SDS011;855;48.824;9.220;2023-05-07T12:20:57;3.43;;;2.23;;
1715;SDS011;855;48.824;9.220;2023-05-07T12:23:25;1.10;;;1.00;;
1715;SDS011;855;48.824;9.220;2023-05-07T12:25:52;1.43;;;1.10;;
1715;SDS011;855;48.824;9.220;2023-05-07T12:28:19;4.30;;;1.70;;
1715;SDS011;855;48.824;9.220;2023-05-07T12:30:48;3.37;;;1.10;;
1715;SDS011;855;48.824;9.220;2023-05-07T12:33:17;6.10;;;1.33;;
1715;SDS011;855;48.824;9.220;2023-05-07T12:35:47;3.50;;;1.73;;
1715;SDS011;855;48.824;9.220;2023-05-07T12:38:15;2.30;;;1.33;;
1715;SDS011;855;48.824;9.220;2023-05-07T12:40:44;3.83;;;1.83;;
1715;SDS011;855;48.824;9.220;2023-05-07T12:43:15;1.47;;;1.40;;
1715;SDS011;855;48.824;9.220;2023-05-07T12:45:43;4.60;;;1.47;;
1715;SDS011;855;48.824;9.220;2023-05-07T12:48:12;6.13;;;2.20;;
1715;SDS011;855;48.824;9.220;2023-05-07T12:50:39;7.17;;;2.10;;
1715;SDS011;855;48.824;9.220;2023-05-07T12:53:06;3.33;;;1.80;;
1715;SDS011;855;48.824;9.220;2023-05-07T12:55:40;3.47;;;1.83;;
1715;SDS011;855;48.824;9.220;2023-05-07T12:58:08;5.00;;;1.77;;
1715;SDS011;855;48.824;9.220;2023-05-07T13:00:41;3.23;;;1.83;;
1715;SDS011;855;48.824;9.220;2023-05-07T13:03:09;6.33;;;3.00;;
1715;SDS011;855;48.824;9.220;2023-05-07T13:05:37;3.20;;;2.40;;
1715;SDS011;855;48.824;9.220;2023-05-07T13:08:05;4.20;;;2.47;;
1715;SDS011;855;48.824;9.220;2023-05-07T13:10:34;2.77;;;2.20;;
1715;SDS011;855;48.824;9.220;2023-05-07T13:13:01;3.20;;;2.03;;
1715;SDS011;855;48.824;9.220;2023-05-07T13:15:28;1.97;;;1.57;;
1715;SDS011;855;48.824;9.220;2023-05-07T13:17:55;1.20;;;1.20;;
1715;SDS011;855;48.824;9.220;2023-05-07T13:20:22;2.20;;;1.30;;
1715;SDS011;855;48.824;9.220;2023-05-07T13:22:51;1.97;;;1.20;;
1715;SDS011;855;48.824;9.220;2023-05-07T13:25:17;2.63;;;1.20;;
1715;SDS011;855;48.824;9.220;2023-05-07T13:27:44;1.53;;;1.03;;
1715;SDS011;855;48.824;9.220;2023-05-07T13:30:11;5.53;;;1.40;;
1715;SDS011;855;48.824;9.220;2023-05-07T13:32:38;1.00;;;0.83;;
1715;SDS011;855;48.824;9.220;2023-05-07T13:35:05;1.80;;;1.33;;
1715;SDS011;855;48.824;9.220;2023-05-07T13:37:33;1.77;;;1.40;;
1715;SDS011;855;48.824;9.220;2023-05-07T13:40:01;1.60;;;1.27;;
1715;SDS011;855;48.824;9.220;2023-05-07T13:42:28;3.47;;;1.87;;
1715;SDS011;855;48.824;9.220;2023-05-07T13:44:55;6.77;;;1.77;;
1715;SDS011;855;48.824;9.220;2023-05-07T13:47:22;1.00;;;1.00;;
1715;SDS011;855;48.824;9.220;2023-05-07T13:49:49;1.10;;;0.90;;
1715;SDS011;855;48.824;9.220;2023-05-07T13:52:16;1.00;;;0.83;;
1715;SDS011;855;48.824;9.220;2023-05-07T13:54:43;1.40;;;0.60;;
1715;SDS011;855;48.824;9.220;2023-05-07T13:57:11;1.47;;;0.70;;
1715;SDS011;855;48.824;9.220;2023-05-07T13:59:38;3.50;;;1.00;;
1715;SDS011;855;48.824;9.220;2023-05-07T14:02:05;1.90;;;0.87;;
1715;SDS011;855;48.824;9.220;2023-05-07T14:04:33;1.10;;;0.67;;
1715;SDS011;855;48.824;9.220;2023-05-07T14:06:59;5.77;;;1.17;;
1715;SDS011;855;48.824;9.220;2023-05-07T14:09:26;2.27;;;1.30;;
1715;SDS011;855;48.824;9.220;2023-05-07T14:11:53;3.30;;;1.20;;
1715;SDS011;855;48.824;9.220;2023-05-07T14:14:21;4.33;;;1.20;;
1715;SDS011;855;48.824;9.220;2023-05-07T14:16:48;2.80;;;1.10;;
1715;SDS011;855;48.824;9.220;2023-05-07T14:19:15;7.43;;;1.27;;
1715;SDS011;855;48.824;9.220;2023-05-07T14:21:42;1.57;;;1.13;;
1715;SDS011;855;48.824;9.220;2023-05-07T14:24:08;2.97;;;1.20;;
1715;SDS011;855;48.824;9.220;2023-05-07T14:26:36;3.43;;;1.40;;
1715;SDS011;855;48.824;9.220;2023-05-07T14:29:02;2.60;;;1.40;;
1715;SDS011;855;48.824;9.220;2023-05-07T14:31:31;3.90;;;1.80;;
1715;SDS011;855;48.824;9.220;2023-05-07T14:33:58;3.33;;;1.40;;
1715;SDS011;855;48.824;9.220;2023-05-07T14:36:25;3.47;;;1.87;;
1715;SDS011;855;48.824;9.220;2023-05-07T14:38:52;4.63;;;1.50;;
1715;SDS011;855;48.824;9.220;2023-05-07T14:41:19;2.00;;;1.33;;
1715;SDS011;855;48.824;9.220;2023-05-07T14:43:46;2.20;;;1.60;;
1715;SDS011;855;48.824;9.220;2023-05-07T14:46:15;10.20;;;1.83;;
1715;SDS011;855;48.824;9.220;2023-05-07T14:48:44;3.17;;;1.83;;
1715;SDS011;855;48.824;9.220;2023-05-07T14:51:11;4.60;;;1.80;;
1715;SDS011;855;48.824;9.220;2023-05-07T14:53:40;3.07;;;1.67;;
1715;SDS011;855;48.824;9.220;2023-05-07T14:56:07;3.63;;;2.07;;
1715;SDS011;855;48.824;9.220;2023-05-07T14:58:35;3.03;;;1.77;;
1715;SDS011;855;48.824;9.220;2023-05-07T15:01:03;2.50;;;1.70;;
1715;SDS011;855;48.824;9.220;2023-05-07T15:03:30;2.90;;;1.97;;
1715;SDS011;855;48.824;9.220;2023-05-07T15:05:58;1.87;;;1.43;;
1715;SDS011;855;48.824;9.220;2023-05-07T15:08:25;1.93;;;1.80;;
1715;SDS011;855;48.824;9.220;2023-05-07T15:10:52;3.23;;;1.47;;
1715;SDS011;855;48.824;9.220;2023-05-07T15:13:20;4.20;;;1.70;;
1715;SDS011;855;48.824;9.220;2023-05-07T15:15:47;2.93;;;1.63;;
1715;SDS011;855;48.824;9.220;2023-05-07T15:18:14;4.27;;;2.07;;
1715;SDS011;855;48.824;9.220;2023-05-07T15:20:41;2.53;;;1.30;;
1715;SDS011;855;48.824;9.220;2023-05-07T15:23:10;5.50;;;1.63;;
1715;SDS011;855;48.824;9.220;2023-05-07T15:25:39;1.77;;;1.70;;
1715;SDS011;855;48.824;9.220;2023-05-07T15:28:05;1.97;;;1.60;;
1715;SDS011;855;48.824;9.220;2023-05-07T15:30:32;3.63;;;1.57;;
1715;SDS011;855;48.824;9.220;2023-05-07T15:33:00;4.17;;;2.10;;
1715;SDS011;855;48.824;9.220;2023-05-07T15:35:27;4.67;;;1.90;;
1715;SDS011;855;48.824;9.220;2023-05-07T15:37:54;8.60;;;1.90;;
1715;SDS011;855;48.824;9.220;2023-05-07T15:40:23;3.03;;;1.93;;
1715;SDS011;855;48.824;9.220;2023-05-07T15:42:50;1.77;;;1.37;;